Terminal Aerodrome Forecast
Issued by NWS

Home | Current Version | Previous Version | Text Only | Print | Product List | Glossary On
Versions: 1 2 3 4 5 6 7 8 9 10 11 12 13 14 15 16 17 18 19 20 21 22 23 24 25 26 27 28 29 30 31 32 33
000
FTUS41 KPBZ 241739
TAFFKL
TAF
KFKL 241739Z 2418/2518 10003KT 4SM -SHRA BR SCT003 SCT009 OVC060
     FM242100 10004KT P6SM OVC025
     FM250400 12011KT 4SM -SHRA OVC008 WS020/20035KT
     FM250900 13011G19KT 2SM SHRA OVC003 WS020/20035KT
     FM251400 26011G19KT 6SM -SHRA OVC015
     FM251600 26011KT P6SM VCSH BKN025=

USA.gov is the U.S. government's official web portal to all federal, state and local government web resources and services.